createdAt,value
2022-10-25T00:01:31.700Z,9.40
2022-10-25T00:03:59.982Z,5.90
2022-10-25T00:06:28.033Z,5.50
2022-10-25T00:08:56.048Z,5.10
2022-10-25T00:11:28.084Z,4.50
2022-10-25T00:13:58.865Z,5.00
2022-10-25T00:16:29.941Z,4.70
2022-10-25T00:18:58.010Z,5.20
2022-10-25T00:21:26.548Z,5.30
2022-10-25T00:23:54.597Z,6.20
2022-10-25T00:26:22.750Z,6.10
2022-10-25T00:28:54.501Z,7.90
2022-10-25T00:31:23.798Z,8.40
2022-10-25T00:33:52.132Z,7.90
2022-10-25T00:36:23.369Z,8.90
2022-10-25T00:38:51.818Z,8.80
2022-10-25T00:41:23.540Z,8.80
2022-10-25T00:43:54.513Z,10.10
2022-10-25T00:46:28.188Z,13.40
2022-10-25T00:49:12.912Z,15.80
2022-10-25T00:51:51.677Z,13.30
2022-10-25T00:54:29.376Z,17.90
2022-10-25T00:57:01.266Z,18.90
2022-10-25T00:59:29.671Z,23.50
2022-10-25T01:01:58.328Z,26.90
2022-10-25T01:04:29.009Z,31.70
2022-10-25T01:06:57.611Z,26.60
2022-10-25T01:09:28.769Z,29.80
2022-10-25T01:11:57.068Z,35.20
2022-10-25T01:14:27.047Z,31.70
2022-10-25T01:20:22.925Z,35.20
2022-10-25T01:23:40.543Z,40.00
2022-10-25T01:26:53.993Z,38.40
2022-10-25T01:29:49.301Z,30.80
2022-10-25T01:32:32.554Z,37.40
2022-10-25T01:35:09.478Z,29.50
2022-10-25T01:38:15.925Z,32.70
2022-10-25T01:41:00.210Z,41.50
2022-10-25T01:43:39.016Z,37.40
2022-10-25T01:46:26.178Z,39.80
2022-10-25T01:49:07.992Z,38.60
2022-10-25T01:51:37.098Z,32.80
2022-10-25T01:54:26.502Z,39.30
2022-10-25T01:57:12.710Z,39.20
2022-10-25T01:59:56.291Z,38.10
2022-10-25T02:03:03.546Z,38.70
2022-10-25T02:05:50.336Z,36.10
2022-10-25T02:08:18.388Z,37.10
2022-10-25T02:11:01.421Z,36.10
2022-10-25T02:13:52.388Z,31.60
2022-10-25T02:16:31.116Z,38.70
2022-10-25T02:19:05.662Z,42.80
2022-10-25T02:21:36.543Z,41.50
2022-10-25T02:24:13.867Z,44.00
2022-10-25T02:26:44.788Z,46.90
2022-10-25T02:29:14.744Z,46.70
2022-10-25T02:31:43.886Z,40.70
2022-10-25T02:34:12.085Z,50.50
2022-10-25T02:36:40.099Z,58.20
2022-10-25T02:39:08.840Z,49.60
2022-10-25T02:41:36.845Z,50.00
2022-10-25T02:44:04.893Z,51.00
2022-10-25T02:46:32.883Z,49.20
2022-10-25T02:49:00.818Z,45.80
2022-10-25T02:51:28.905Z,48.00
2022-10-25T02:53:57.012Z,57.40
2022-10-25T02:56:25.090Z,50.80
2022-10-25T02:58:56.762Z,51.20
2022-10-25T03:01:26.479Z,58.80
2022-10-25T03:03:54.805Z,52.90
2022-10-25T03:06:22.809Z,48.10
2022-10-25T03:08:50.777Z,52.10
2022-10-25T03:11:18.824Z,53.10
2022-10-25T03:13:46.907Z,57.60
2022-10-25T03:16:14.854Z,55.00
2022-10-25T03:18:42.799Z,50.40
2022-10-25T03:21:10.776Z,63.90
2022-10-25T03:23:38.734Z,56.90
2022-10-25T03:26:06.759Z,60.80
2022-10-25T03:28:34.843Z,59.50
2022-10-25T03:31:02.794Z,56.60
2022-10-25T03:36:04.053Z,50.50
2022-10-25T03:38:32.167Z,60.10
2022-10-25T03:41:00.170Z,50.30
2022-10-25T03:43:28.383Z,54.80
2022-10-25T03:45:56.836Z,24.50
2022-10-25T03:48:25.003Z,66.60
2022-10-25T03:50:54.365Z,63.40
2022-10-25T03:53:22.905Z,74.30
2022-10-25T03:55:50.964Z,72.60
2022-10-25T03:58:19.916Z,85.10
2022-10-25T04:00:48.320Z,79.30
2022-10-25T04:03:16.723Z,70.90
2022-10-25T04:05:44.772Z,73.80
2022-10-25T04:08:12.944Z,72.60
2022-10-25T04:10:41.007Z,73.60
2022-10-25T04:13:08.937Z,75.20
2022-10-25T04:15:38.806Z,71.80
2022-10-25T04:18:06.716Z,77.10
2022-10-25T04:20:34.748Z,72.60
2022-10-25T04:23:02.785Z,70.30
2022-10-25T04:25:30.787Z,65.90
2022-10-25T04:27:59.933Z,77.90
2022-10-25T04:30:28.091Z,72.50
2022-10-25T04:32:58.164Z,85.80
2022-10-25T04:35:26.069Z,77.00
2022-10-25T04:37:57.419Z,69.40
2022-10-25T04:40:25.543Z,74.60
2022-10-25T04:42:53.484Z,75.50
2022-10-25T04:45:21.370Z,81.80
2022-10-25T04:47:49.467Z,79.90
2022-10-25T04:50:17.536Z,85.70
2022-10-25T04:52:46.052Z,85.30
2022-10-25T04:55:14.279Z,84.60
2022-10-25T04:57:42.335Z,84.30
2022-10-25T05:00:11.160Z,91.60
2022-10-25T05:02:39.234Z,91.50
2022-10-25T05:05:07.609Z,100.40
2022-10-25T05:07:35.565Z,89.90
2022-10-25T05:10:04.080Z,81.30
2022-10-25T05:12:32.096Z,100.50
2022-10-25T05:15:00.000Z,83.70
2022-10-25T05:17:28.944Z,78.30
2022-10-25T05:19:56.889Z,86.60
2022-10-25T05:22:25.800Z,84.60
2022-10-25T05:24:54.367Z,74.00
2022-10-25T05:27:22.348Z,72.50
2022-10-25T05:29:50.274Z,82.00
2022-10-25T05:32:18.266Z,71.80
2022-10-25T05:34:46.247Z,68.60
2022-10-25T05:37:14.304Z,71.80
2022-10-25T05:39:42.217Z,72.40
2022-10-25T05:42:10.137Z,68.10
2022-10-25T05:44:38.347Z,68.20
2022-10-25T05:47:06.632Z,65.30
2022-10-25T05:49:39.646Z,62.80
2022-10-25T05:52:07.673Z,67.60
2022-10-25T05:54:35.851Z,71.50
2022-10-25T05:57:04.032Z,58.40
2022-10-25T05:59:32.023Z,62.60
2022-10-25T06:02:00.131Z,58.20
2022-10-25T06:04:28.299Z,60.80
2022-10-25T06:06:58.069Z,58.90
2022-10-25T06:09:26.117Z,59.60
2022-10-25T06:11:54.184Z,57.70
2022-10-25T06:14:22.098Z,51.20
2022-10-25T06:16:50.085Z,57.40
2022-10-25T06:19:18.007Z,49.70
2022-10-25T06:21:46.928Z,49.80
2022-10-25T06:24:15.017Z,52.10
2022-10-25T06:26:43.099Z,51.20
2022-10-25T06:29:11.128Z,45.50
2022-10-25T06:31:41.760Z,44.60
2022-10-25T06:34:09.814Z,38.50
2022-10-25T06:36:37.831Z,37.80
2022-10-25T06:39:08.746Z,41.10
2022-10-25T06:41:50.147Z,33.60
2022-10-25T06:44:26.561Z,36.90
2022-10-25T06:49:42.784Z,31.60
2022-10-25T06:52:10.847Z,35.00
2022-10-25T06:54:38.878Z,37.00
2022-10-25T06:57:06.902Z,34.30
2022-10-25T06:59:34.933Z,30.70
2022-10-25T07:02:03.107Z,35.40
2022-10-25T07:04:32.745Z,27.00
2022-10-25T07:07:01.502Z,28.70
2022-10-25T07:09:29.832Z,29.80
2022-10-25T07:11:57.899Z,32.60
2022-10-25T07:14:25.837Z,34.70
2022-10-25T07:16:53.839Z,30.60
2022-10-25T07:19:23.895Z,30.00
2022-10-25T07:21:51.924Z,32.20
2022-10-25T07:24:20.015Z,31.10
2022-10-25T07:26:48.135Z,30.90
2022-10-25T07:29:16.146Z,30.30
2022-10-25T07:31:44.529Z,25.00
2022-10-25T07:34:14.688Z,24.60
2022-10-25T07:36:43.092Z,30.70
2022-10-25T07:39:11.153Z,28.40
2022-10-25T07:41:39.116Z,26.60
2022-10-25T07:44:08.755Z,34.10
2022-10-25T07:46:38.712Z,28.10
2022-10-25T07:49:06.627Z,28.00
2022-10-25T07:51:34.640Z,26.00
2022-10-25T07:54:02.738Z,20.20
2022-10-25T07:56:30.818Z,22.90
2022-10-25T07:58:59.125Z,19.10
2022-10-25T08:01:28.689Z,18.10
2022-10-25T08:03:57.118Z,20.50
2022-10-25T08:06:26.384Z,15.30
2022-10-25T08:08:54.437Z,13.20
2022-10-25T08:11:22.506Z,12.30
2022-10-25T08:13:50.799Z,15.60
2022-10-25T08:16:19.216Z,10.40
2022-10-25T08:18:47.373Z,10.90
2022-10-25T08:21:16.355Z,15.20
2022-10-25T08:23:44.557Z,9.30
2022-10-25T08:26:12.708Z,12.20
2022-10-25T08:28:41.359Z,11.80
2022-10-25T08:31:10.452Z,10.40
2022-10-25T08:33:38.633Z,10.90
2022-10-25T08:36:07.027Z,8.80
2022-10-25T08:38:35.099Z,9.00
2022-10-25T08:41:07.273Z,9.50
2022-10-25T08:43:35.338Z,12.50
2022-10-25T08:46:16.234Z,7.70
2022-10-25T08:48:49.242Z,9.00
2022-10-25T08:51:33.938Z,8.50
2022-10-25T08:54:10.737Z,7.60
2022-10-25T08:56:46.667Z,7.10
2022-10-25T08:59:30.455Z,12.00
2022-10-25T09:02:00.269Z,8.80
2022-10-25T09:04:30.518Z,9.40
2022-10-25T09:07:27.264Z,11.10
2022-10-25T09:10:06.935Z,9.80
2022-10-25T09:13:36.558Z,8.20
2022-10-25T09:16:13.036Z,7.70
2022-10-25T09:18:46.206Z,11.50
2022-10-25T09:21:23.019Z,9.20
2022-10-25T09:24:01.666Z,9.20
2022-10-25T09:26:39.049Z,8.40
2022-10-25T09:29:22.350Z,9.50
2022-10-25T09:31:55.348Z,11.00
2022-10-25T09:34:24.979Z,11.50
2022-10-25T09:37:02.193Z,10.80
2022-10-25T09:39:41.762Z,6.20
2022-10-25T09:42:25.047Z,6.50
2022-10-25T09:45:02.049Z,6.90
2022-10-25T09:47:33.046Z,5.50
2022-10-25T09:50:32.212Z,6.80
2022-10-25T09:53:16.657Z,8.00
2022-10-25T09:55:57.321Z,9.00
2022-10-25T09:58:34.086Z,11.00
2022-10-25T10:01:09.122Z,10.80
2022-10-25T10:03:37.900Z,14.40
2022-10-25T10:06:18.832Z,8.70
2022-10-25T10:08:53.184Z,9.80
2022-10-25T10:11:21.625Z,9.00
2022-10-25T10:13:57.501Z,8.10
2022-10-25T10:19:19.732Z,15.30
2022-10-25T10:21:51.758Z,8.10
2022-10-25T10:24:20.901Z,8.50
2022-10-25T10:26:55.763Z,13.10
2022-10-25T10:29:28.717Z,9.00
2022-10-25T10:32:00.695Z,9.00
2022-10-25T10:34:34.635Z,10.20
2022-10-25T10:37:12.821Z,11.00
2022-10-25T10:40:07.144Z,9.60
2022-10-25T10:42:37.972Z,11.90
2022-10-25T10:45:08.060Z,15.10
2022-10-25T10:47:55.796Z,15.50
2022-10-25T10:50:24.538Z,16.90
2022-10-25T10:53:01.049Z,14.40
2022-10-25T10:55:34.712Z,18.40
2022-10-25T10:58:16.593Z,13.80
2022-10-25T11:01:29.684Z,10.80
2022-10-25T11:04:00.753Z,11.70
2022-10-25T11:06:34.246Z,14.00
2022-10-25T11:09:12.963Z,18.80
2022-10-25T11:11:41.380Z,14.30
2022-10-25T11:14:17.161Z,11.30
2022-10-25T11:17:28.502Z,11.60
2022-10-25T11:20:20.984Z,12.20
2022-10-25T11:22:54.894Z,12.50
2022-10-25T11:25:35.934Z,11.00
2022-10-25T11:28:22.438Z,16.30
2022-10-25T11:33:43.625Z,12.50
2022-10-25T11:36:49.212Z,14.20
2022-10-25T11:39:48.497Z,13.20
2022-10-25T11:43:02.565Z,11.70
2022-10-25T11:45:48.695Z,15.60
2022-10-25T11:48:35.721Z,11.50
2022-10-25T11:51:44.978Z,13.20
2022-10-25T11:54:19.005Z,13.00
2022-10-25T11:57:29.926Z,13.70
2022-10-25T12:00:24.368Z,13.00
2022-10-25T12:02:55.122Z,16.40
2022-10-25T12:05:28.840Z,16.30
2022-10-25T12:08:34.167Z,15.40
2022-10-25T12:11:13.732Z,12.30
2022-10-25T12:13:49.463Z,15.30
2022-10-25T12:16:20.230Z,13.10
2022-10-25T12:18:51.641Z,14.20
2022-10-25T12:21:28.121Z,9.60
2022-10-25T12:23:57.322Z,10.50
2022-10-25T12:26:36.158Z,14.90
2022-10-25T12:29:12.337Z,8.70
2022-10-25T12:31:52.282Z,9.10
2022-10-25T12:34:40.530Z,11.40
2022-10-25T12:37:19.669Z,9.90
2022-10-25T12:39:48.151Z,10.60
2022-10-25T12:42:26.053Z,9.50
2022-10-25T12:45:00.241Z,12.50
2022-10-25T12:47:43.341Z,9.50
2022-10-25T12:50:24.948Z,13.70
2022-10-25T12:53:30.241Z,11.40
2022-10-25T12:56:02.937Z,13.10
2022-10-25T12:58:45.966Z,9.50
2022-10-25T13:01:13.998Z,8.50
2022-10-25T13:04:00.249Z,14.70
2022-10-25T13:06:28.223Z,10.50
2022-10-25T13:09:04.353Z,12.30
2022-10-25T13:11:47.649Z,8.00
2022-10-25T13:14:24.894Z,8.20
2022-10-25T13:16:53.201Z,6.60
2022-10-25T13:19:30.658Z,10.20
2022-10-25T13:22:30.657Z,6.70
2022-10-25T13:25:24.306Z,7.20
2022-10-25T13:28:10.897Z,4.90
2022-10-25T13:30:40.397Z,6.80
2022-10-25T13:33:24.595Z,7.40
2022-10-25T13:35:53.114Z,7.50
2022-10-25T13:38:23.484Z,10.40
2022-10-25T13:41:10.366Z,12.40
2022-10-25T13:44:01.949Z,9.20
2022-10-25T13:46:41.462Z,5.80
2022-10-25T13:49:43.051Z,8.00
2022-10-25T13:52:57.855Z,15.40
2022-10-25T13:55:38.207Z,8.80
2022-10-25T13:58:31.295Z,8.90
2022-10-25T14:01:21.721Z,12.40
2022-10-25T14:03:53.277Z,9.30
2022-10-25T14:06:30.308Z,12.70
2022-10-25T14:09:13.242Z,11.00
2022-10-25T14:11:51.708Z,14.50
2022-10-25T14:14:29.907Z,11.80
2022-10-25T14:17:22.778Z,10.70
2022-10-25T14:19:57.758Z,10.30
2022-10-25T14:22:34.933Z,10.60
2022-10-25T14:25:14.382Z,14.40
2022-10-25T14:27:42.513Z,10.60
2022-10-25T14:30:24.370Z,9.00
2022-10-25T14:32:55.731Z,8.00
2022-10-25T14:35:33.959Z,9.40
2022-10-25T14:38:04.085Z,9.20
2022-10-25T14:40:32.388Z,8.50
2022-10-25T14:43:39.615Z,7.80
2022-10-25T14:46:10.503Z,10.10
2022-10-25T14:48:38.612Z,9.70
2022-10-25T14:51:13.718Z,8.60
2022-10-25T14:53:58.036Z,8.50
2022-10-25T14:56:28.472Z,9.40
2022-10-25T14:58:57.175Z,14.80
2022-10-25T15:01:26.052Z,20.30
2022-10-25T15:03:58.276Z,13.90
2022-10-25T15:06:29.985Z,9.70
2022-10-25T15:09:30.057Z,12.90
2022-10-25T15:12:10.178Z,10.80
2022-10-25T15:14:38.868Z,9.80
2022-10-25T15:17:21.742Z,12.80
2022-10-25T15:20:14.376Z,12.60
2022-10-25T15:22:47.627Z,10.10
2022-10-25T15:25:21.706Z,11.70
2022-10-25T15:27:52.657Z,8.70
2022-10-25T15:30:55.950Z,10.40
2022-10-25T15:33:32.262Z,10.00
2022-10-25T15:36:03.237Z,19.20
2022-10-25T15:38:54.349Z,15.10
2022-10-25T15:41:22.699Z,15.30
2022-10-25T15:43:52.160Z,14.20
2022-10-25T15:46:31.132Z,15.00
2022-10-25T15:49:01.113Z,15.30
2022-10-25T15:51:32.337Z,15.70
2022-10-25T15:54:00.482Z,17.90
2022-10-25T15:56:29.326Z,20.00
2022-10-25T15:59:00.379Z,16.00
2022-10-25T16:01:28.783Z,15.60
2022-10-25T16:03:56.892Z,16.10
2022-10-25T16:06:24.972Z,16.70
2022-10-25T16:08:53.397Z,20.20
2022-10-25T16:11:21.935Z,17.60
2022-10-25T16:13:53.240Z,17.70
2022-10-25T16:16:44.150Z,19.00
2022-10-25T16:19:26.484Z,18.40
2022-10-25T16:21:54.519Z,25.10
2022-10-25T16:24:22.803Z,19.00
2022-10-25T16:26:51.321Z,21.60
2022-10-25T16:29:21.919Z,22.90
2022-10-25T16:31:51.084Z,27.90
2022-10-25T16:34:19.898Z,21.00
2022-10-25T16:36:50.585Z,22.80
2022-10-25T16:39:18.680Z,31.30
2022-10-25T16:41:47.996Z,20.90
2022-10-25T16:44:19.765Z,20.60
2022-10-25T16:46:47.793Z,16.20
2022-10-25T16:49:16.101Z,23.70
2022-10-25T16:51:45.016Z,32.80
2022-10-25T16:54:15.589Z,24.30
2022-10-25T16:56:44.265Z,22.00
2022-10-25T16:59:12.723Z,21.40
2022-10-25T17:01:44.534Z,20.50
2022-10-25T17:04:15.027Z,22.10
2022-10-25T17:06:43.499Z,26.00
2022-10-25T17:09:12.144Z,24.10
2022-10-25T17:11:41.139Z,20.70
2022-10-25T17:14:09.953Z,24.90
2022-10-25T17:16:44.615Z,27.40
2022-10-25T17:19:14.447Z,26.20
2022-10-25T17:21:43.174Z,24.60
2022-10-25T17:24:11.594Z,24.00
2022-10-25T17:26:39.583Z,22.40
2022-10-25T17:29:08.010Z,33.50
2022-10-25T17:31:36.179Z,23.30
2022-10-25T17:34:04.314Z,40.70
2022-10-25T17:36:32.771Z,35.10
2022-10-25T17:39:00.952Z,36.10
2022-10-25T17:41:28.995Z,35.00
2022-10-25T17:43:57.917Z,29.80
2022-10-25T17:46:30.803Z,33.50
2022-10-25T17:49:06.915Z,33.40
2022-10-25T17:54:04.388Z,26.60
2022-10-25T17:56:32.568Z,25.70
2022-10-25T17:59:04.301Z,18.10
2022-10-25T18:01:35.833Z,19.80
2022-10-25T18:04:04.593Z,21.30
2022-10-25T18:06:32.682Z,23.40
2022-10-25T18:09:03.200Z,23.10
2022-10-25T18:11:31.633Z,27.20
2022-10-25T18:14:01.977Z,23.30
2022-10-25T18:16:31.550Z,23.40
2022-10-25T18:19:02.774Z,30.20
2022-10-25T18:21:32.048Z,22.50
2022-10-25T18:24:05.227Z,21.70
2022-10-25T18:26:35.359Z,22.10
2022-10-25T18:29:03.745Z,25.30
2022-10-25T18:31:31.841Z,26.50
2022-10-25T18:34:03.507Z,28.80
2022-10-25T18:36:31.814Z,25.80
2022-10-25T18:38:59.861Z,22.00
2022-10-25T18:41:31.177Z,19.60
2022-10-25T18:44:00.142Z,19.60
2022-10-25T18:46:30.935Z,23.10
2022-10-25T18:48:59.448Z,20.20
2022-10-25T18:51:32.316Z,21.50
2022-10-25T18:54:02.362Z,23.70
2022-10-25T18:56:32.686Z,25.00
2022-10-25T18:59:00.812Z,28.80
2022-10-25T19:01:32.809Z,35.40
2022-10-25T19:04:03.901Z,35.30
2022-10-25T19:06:32.800Z,41.50
2022-10-25T19:09:03.062Z,43.60
2022-10-25T19:11:33.029Z,50.80
2022-10-25T19:14:01.532Z,56.20
2022-10-25T19:16:29.951Z,52.30
2022-10-25T19:19:02.266Z,51.60
2022-10-25T19:21:30.349Z,59.90
2022-10-25T19:23:58.503Z,65.70
2022-10-25T19:26:27.136Z,64.10
2022-10-25T19:29:00.494Z,71.50
2022-10-25T19:31:29.171Z,64.60
2022-10-25T19:34:00.533Z,53.40
2022-10-25T19:36:29.763Z,49.10
2022-10-25T19:39:01.794Z,40.20
2022-10-25T19:41:29.984Z,39.10
2022-10-25T19:43:59.776Z,35.90
2022-10-25T19:46:28.028Z,45.40
2022-10-25T19:48:56.581Z,39.90
2022-10-25T19:51:24.597Z,32.30
2022-10-25T19:53:52.576Z,35.70
2022-10-25T19:56:22.288Z,34.50
2022-10-25T19:58:50.935Z,34.50
2022-10-25T20:01:24.420Z,37.90
2022-10-25T20:03:55.541Z,38.50
2022-10-25T20:06:27.022Z,44.80
2022-10-25T20:08:56.549Z,48.60
2022-10-25T20:11:27.996Z,45.50
2022-10-25T20:14:01.928Z,45.70
2022-10-25T20:16:31.609Z,45.50
2022-10-25T20:19:01.697Z,41.00
2022-10-25T20:21:34.155Z,37.60
2022-10-25T20:24:06.021Z,39.20
2022-10-25T20:26:36.419Z,43.50
2022-10-25T20:29:07.633Z,43.40
2022-10-25T20:31:35.621Z,34.70
2022-10-25T20:34:03.841Z,43.60
2022-10-25T20:36:32.203Z,40.20
2022-10-25T20:39:00.119Z,45.60
2022-10-25T20:41:30.102Z,50.20
2022-10-25T20:44:01.932Z,34.30
2022-10-25T20:46:30.746Z,43.80
2022-10-25T20:49:00.454Z,48.20
2022-10-25T20:51:28.536Z,45.10
2022-10-25T20:53:57.079Z,46.30
2022-10-25T20:56:25.074Z,47.50
2022-10-25T20:58:53.034Z,53.10
2022-10-25T21:01:21.222Z,52.20
2022-10-25T21:03:49.353Z,54.30
2022-10-25T21:06:17.411Z,52.10
2022-10-25T21:08:45.410Z,53.50
2022-10-25T21:11:14.221Z,47.50
2022-10-25T21:13:43.415Z,42.60
2022-10-25T21:16:13.737Z,44.70
2022-10-25T21:18:43.045Z,50.90
2022-10-25T21:21:18.101Z,37.30
2022-10-25T21:23:48.007Z,47.10
2022-10-25T21:26:16.349Z,51.60
2022-10-25T21:28:44.414Z,35.30
2022-10-25T21:31:15.168Z,46.40
2022-10-25T21:33:49.942Z,42.40
2022-10-25T21:36:20.695Z,55.90
2022-10-25T21:38:48.815Z,47.70
2022-10-25T21:41:20.984Z,53.30
2022-10-25T21:43:51.014Z,47.10
2022-10-25T21:46:21.350Z,47.70
2022-10-25T21:48:52.802Z,58.00
2022-10-25T21:51:24.496Z,59.40
2022-10-25T21:53:53.959Z,52.30
2022-10-25T21:56:31.217Z,42.20
2022-10-25T21:59:01.018Z,46.60
2022-10-25T22:01:30.448Z,52.60
2022-10-25T22:03:58.971Z,50.00
2022-10-25T22:06:27.638Z,49.80
2022-10-25T22:08:56.462Z,60.10
2022-10-25T22:11:27.616Z,57.60
2022-10-25T22:14:14.303Z,67.80
2022-10-25T22:16:42.415Z,64.10
2022-10-25T22:19:15.936Z,65.20
2022-10-25T22:21:45.119Z,66.20
2022-10-25T22:24:13.280Z,73.40
2022-10-25T22:26:43.813Z,68.50
2022-10-25T22:29:13.807Z,34.80
2022-10-25T22:31:42.053Z,61.50
2022-10-25T22:34:10.536Z,65.90
2022-10-25T22:36:41.111Z,56.00
2022-10-25T22:39:10.334Z,49.80
2022-10-25T22:41:38.724Z,58.80
2022-10-25T22:44:06.681Z,57.80
2022-10-25T22:46:36.034Z,53.40
2022-10-25T22:49:06.645Z,55.50
2022-10-25T22:51:35.867Z,61.90
2022-10-25T22:54:04.211Z,63.00
2022-10-25T22:56:32.520Z,57.40
2022-10-25T22:59:02.821Z,51.20
2022-10-25T23:01:34.171Z,59.10
2022-10-25T23:04:05.282Z,61.90
2022-10-25T23:06:36.220Z,59.90
2022-10-25T23:09:07.258Z,68.60
2022-10-25T23:11:36.871Z,63.60
2022-10-25T23:14:05.665Z,62.50
2022-10-25T23:16:33.634Z,59.20
2022-10-25T23:19:02.532Z,63.50
2022-10-25T23:21:31.135Z,65.20
2022-10-25T23:24:00.338Z,54.40
2022-10-25T23:26:32.241Z,57.00
2022-10-25T23:29:00.845Z,58.60
2022-10-25T23:31:30.438Z,62.10
2022-10-25T23:34:00.098Z,56.00
2022-10-25T23:36:37.484Z,51.60
2022-10-25T23:39:08.069Z,56.80
2022-10-25T23:41:36.582Z,56.00
2022-10-25T23:44:04.800Z,52.60
2022-10-25T23:46:32.755Z,52.10
2022-10-25T23:49:00.810Z,53.90
2022-10-25T23:51:28.834Z,59.00
2022-10-25T23:53:56.756Z,53.70
2022-10-25T23:56:24.747Z,61.50
2022-10-25T23:58:53.836Z,58.20
